createdAt,value
2022-12-23T00:01:34.823Z,4.60
2022-12-23T00:04:03.178Z,4.50
2022-12-23T00:06:31.336Z,4.30
2022-12-23T00:09:00.452Z,4.20
2022-12-23T00:11:29.011Z,4.20
2022-12-23T00:14:21.270Z,3.80
2022-12-23T00:16:51.346Z,4.10
2022-12-23T00:19:19.992Z,4.60
2022-12-23T00:21:48.827Z,4.00
2022-12-23T00:24:17.410Z,4.10
2022-12-23T00:26:45.618Z,4.10
2022-12-23T00:29:13.582Z,3.70
2022-12-23T00:31:41.739Z,4.00
2022-12-23T00:34:12.371Z,3.60
2022-12-23T00:36:41.120Z,3.70
2022-12-23T00:39:31.489Z,3.50
2022-12-23T00:42:18.270Z,3.70
2022-12-23T00:44:46.289Z,4.10
2022-12-23T00:47:34.479Z,3.50
2022-12-23T00:50:02.462Z,3.70
2022-12-23T00:52:30.624Z,3.80
2022-12-23T00:54:58.592Z,3.50
2022-12-23T00:57:26.758Z,3.70
2022-12-23T00:59:54.803Z,3.20
2022-12-23T01:02:41.473Z,3.50
2022-12-23T01:05:46.997Z,3.30
2022-12-23T01:08:15.094Z,3.60
2022-12-23T01:10:42.979Z,3.20
2022-12-23T01:13:10.903Z,3.20
2022-12-23T01:15:38.982Z,3.80
2022-12-23T01:18:07.088Z,3.30
2022-12-23T01:20:37.368Z,3.50
2022-12-23T01:23:05.758Z,3.20
2022-12-23T01:25:34.150Z,3.40
2022-12-23T01:28:02.105Z,2.90
2022-12-23T01:30:30.048Z,3.30
2022-12-23T01:32:58.385Z,3.20
2022-12-23T01:35:26.420Z,3.40
2022-12-23T01:37:54.395Z,3.00
2022-12-23T01:40:22.677Z,3.30
2022-12-23T01:42:51.133Z,3.30
2022-12-23T01:45:27.862Z,3.10
2022-12-23T01:48:11.784Z,3.20
2022-12-23T01:50:48.667Z,2.90
2022-12-23T01:53:42.714Z,3.20
2022-12-23T01:56:38.145Z,3.20
2022-12-23T02:02:25.096Z,2.80
2022-12-23T02:04:54.507Z,3.00
2022-12-23T02:07:41.542Z,3.20
2022-12-23T02:10:10.483Z,3.10
2022-12-23T02:13:34.842Z,3.20
2022-12-23T02:16:17.221Z,2.90
2022-12-23T02:19:05.808Z,2.80
2022-12-23T02:21:59.059Z,3.30
2022-12-23T02:25:24.798Z,3.20
2022-12-23T02:28:36.011Z,2.90
2022-12-23T02:31:16.419Z,3.40
2022-12-23T02:34:16.078Z,3.20
2022-12-23T02:36:59.484Z,3.00
2022-12-23T02:39:51.850Z,3.20
2022-12-23T02:42:37.741Z,2.90
2022-12-23T02:45:23.511Z,2.80
2022-12-23T02:48:07.059Z,2.90
2022-12-23T02:50:39.320Z,3.20
2022-12-23T02:53:26.477Z,3.30
2022-12-23T02:55:57.892Z,3.00
2022-12-23T02:58:34.268Z,2.70
2022-12-23T03:01:07.226Z,3.00
2022-12-23T03:03:37.840Z,3.20
2022-12-23T03:06:22.736Z,2.80
2022-12-23T03:08:56.009Z,3.10
2022-12-23T03:11:50.844Z,3.00
2022-12-23T03:14:40.831Z,3.00
2022-12-23T03:17:53.303Z,2.90
2022-12-23T03:20:38.109Z,3.00
2022-12-23T03:23:34.710Z,2.70
2022-12-23T03:26:17.036Z,3.00
2022-12-23T03:28:52.025Z,2.80
2022-12-23T03:31:27.584Z,2.50
2022-12-23T03:34:06.155Z,2.80
2022-12-23T03:36:47.428Z,3.00
2022-12-23T03:39:22.219Z,2.80
2022-12-23T03:44:57.117Z,2.70
2022-12-23T03:47:45.427Z,2.60
2022-12-23T03:50:17.917Z,2.50
2022-12-23T03:53:20.927Z,2.70
2022-12-23T03:56:16.995Z,3.00
2022-12-23T03:59:34.132Z,2.80
2022-12-23T04:02:18.619Z,2.70
2022-12-23T04:05:25.778Z,2.80
2022-12-23T04:08:10.504Z,2.40
2022-12-23T04:10:38.967Z,2.60
2022-12-23T04:13:07.546Z,2.60
2022-12-23T04:15:44.385Z,2.70
2022-12-23T04:18:12.530Z,2.70
2022-12-23T04:20:40.681Z,2.50
2022-12-23T04:23:08.562Z,2.80
2022-12-23T04:25:36.930Z,2.70
2022-12-23T04:28:05.330Z,2.70
2022-12-23T04:30:34.603Z,2.70
2022-12-23T04:33:03.830Z,1.90
2022-12-23T04:35:31.977Z,2.70
2022-12-23T04:38:00.257Z,2.90
2022-12-23T04:40:28.427Z,2.60
2022-12-23T04:42:56.497Z,2.40
2022-12-23T04:45:24.469Z,2.50
2022-12-23T04:47:54.418Z,2.70
2022-12-23T04:50:22.469Z,2.80
2022-12-23T04:52:50.532Z,2.50
2022-12-23T04:55:18.804Z,2.90
2022-12-23T04:57:46.751Z,2.60
2022-12-23T05:00:15.774Z,2.60
2022-12-23T05:02:43.879Z,2.60
2022-12-23T05:05:12.059Z,2.40
2022-12-23T05:07:39.979Z,2.40
2022-12-23T05:10:09.575Z,2.40
2022-12-23T05:12:37.560Z,2.40
2022-12-23T05:15:06.552Z,2.70
2022-12-23T05:17:35.133Z,2.80
2022-12-23T05:20:03.128Z,2.40
2022-12-23T05:22:31.284Z,2.60
2022-12-23T05:24:59.492Z,2.10
2022-12-23T05:27:27.424Z,2.60
2022-12-23T05:29:55.473Z,2.40
2022-12-23T05:32:23.367Z,2.40
2022-12-23T05:34:51.517Z,2.60
2022-12-23T05:37:19.628Z,2.60
2022-12-23T05:39:47.880Z,2.10
2022-12-23T05:42:19.438Z,2.30
2022-12-23T05:44:48.134Z,2.40
2022-12-23T05:47:16.126Z,2.40
2022-12-23T05:49:43.989Z,2.40
2022-12-23T05:52:11.926Z,2.40
2022-12-23T05:54:40.142Z,2.20
2022-12-23T05:57:08.893Z,2.20
2022-12-23T05:59:36.966Z,2.40
2022-12-23T06:02:05.555Z,2.30
2022-12-23T06:04:33.625Z,2.20
2022-12-23T06:07:01.802Z,2.50
2022-12-23T06:09:29.865Z,2.30
2022-12-23T06:11:58.131Z,2.40
2022-12-23T06:14:29.186Z,2.30
2022-12-23T06:16:57.741Z,2.20
2022-12-23T06:19:26.881Z,2.30
2022-12-23T06:21:54.901Z,2.30
2022-12-23T06:24:23.533Z,2.20
2022-12-23T06:26:56.815Z,2.50
2022-12-23T06:29:25.735Z,2.50
2022-12-23T06:31:54.006Z,2.50
2022-12-23T06:34:22.203Z,2.40
2022-12-23T06:36:50.341Z,2.20
2022-12-23T06:39:18.422Z,2.70
2022-12-23T06:41:46.990Z,2.60
2022-12-23T06:44:15.353Z,2.70
2022-12-23T06:46:43.431Z,2.70
2022-12-23T06:49:13.791Z,2.40
2022-12-23T06:51:42.228Z,2.60
2022-12-23T06:54:14.519Z,2.70
2022-12-23T06:56:42.394Z,2.50
2022-12-23T06:59:10.513Z,2.30
2022-12-23T07:01:38.680Z,2.60
2022-12-23T07:04:06.808Z,2.60
2022-12-23T07:06:34.894Z,2.90
2022-12-23T07:09:02.765Z,2.40
2022-12-23T07:11:30.907Z,2.30
2022-12-23T07:14:00.533Z,2.70
2022-12-23T07:16:28.912Z,2.60
2022-12-23T07:18:56.975Z,2.80
2022-12-23T07:21:29.391Z,2.60
2022-12-23T07:23:58.137Z,2.80
2022-12-23T07:26:26.722Z,2.60
2022-12-23T07:28:54.688Z,2.60
2022-12-23T07:31:23.027Z,2.60
2022-12-23T07:33:51.095Z,2.60
2022-12-23T07:36:19.413Z,2.90
2022-12-23T07:38:51.805Z,2.70
2022-12-23T07:41:19.983Z,2.90
2022-12-23T07:43:48.392Z,2.70
2022-12-23T07:46:16.559Z,2.70
2022-12-23T07:48:44.675Z,3.10
2022-12-23T07:51:12.701Z,3.30
2022-12-23T07:53:40.836Z,3.40
2022-12-23T07:56:09.212Z,3.10
2022-12-23T07:58:37.383Z,3.10
2022-12-23T08:01:10.231Z,3.20
2022-12-23T08:03:38.585Z,2.80
2022-12-23T08:06:12.803Z,3.30
2022-12-23T08:08:45.384Z,3.50
2022-12-23T08:11:16.437Z,3.20
2022-12-23T08:13:46.382Z,3.00
2022-12-23T08:16:14.602Z,3.10
2022-12-23T08:18:42.832Z,3.30
2022-12-23T08:21:16.832Z,3.30
2022-12-23T08:23:47.551Z,2.90
2022-12-23T08:26:22.222Z,3.40
2022-12-23T08:28:53.723Z,3.10
2022-12-23T08:31:30.214Z,3.00
2022-12-23T08:34:01.018Z,3.00
2022-12-23T08:36:33.124Z,2.90
2022-12-23T08:39:07.342Z,3.00
2022-12-23T08:41:43.602Z,3.30
2022-12-23T08:44:13.582Z,2.90
2022-12-23T08:46:42.905Z,2.80
2022-12-23T08:49:11.850Z,2.70
2022-12-23T08:51:40.422Z,2.90
2022-12-23T08:54:10.353Z,2.70
2022-12-23T08:56:42.215Z,2.60
2022-12-23T08:59:19.665Z,2.80
2022-12-23T09:01:48.642Z,2.70
2022-12-23T09:04:17.578Z,2.70
2022-12-23T09:06:46.065Z,2.50
2022-12-23T09:09:16.195Z,2.70
2022-12-23T09:11:44.873Z,2.60
2022-12-23T09:14:13.888Z,2.70
2022-12-23T09:16:43.869Z,2.80
2022-12-23T09:19:14.087Z,2.60
2022-12-23T09:21:42.792Z,2.60
2022-12-23T09:24:11.589Z,2.90
2022-12-23T09:26:40.580Z,2.30
2022-12-23T09:29:10.497Z,2.80
2022-12-23T09:31:39.986Z,2.60
2022-12-23T09:34:12.404Z,2.80
2022-12-23T09:36:41.264Z,2.60
2022-12-23T09:39:11.578Z,2.90
2022-12-23T09:42:34.241Z,3.10
2022-12-23T09:45:40.168Z,3.60
2022-12-23T09:48:18.968Z,3.50
2022-12-23T09:50:48.431Z,3.30
2022-12-23T09:53:25.707Z,3.20
2022-12-23T09:56:16.354Z,3.60
2022-12-23T09:59:35.267Z,3.60
2022-12-23T10:02:44.927Z,3.50
2022-12-23T10:05:52.220Z,3.90
2022-12-23T10:08:29.337Z,3.80
2022-12-23T10:11:27.983Z,4.30
2022-12-23T10:14:31.530Z,3.90
2022-12-23T10:17:18.297Z,3.90
2022-12-23T10:19:51.985Z,3.80
2022-12-23T10:22:39.202Z,3.70
2022-12-23T10:25:47.914Z,4.00
2022-12-23T10:28:22.673Z,4.20
2022-12-23T10:31:31.094Z,3.70
2022-12-23T10:34:23.641Z,3.60
2022-12-23T10:37:19.998Z,3.60
2022-12-23T10:40:02.490Z,3.70
2022-12-23T10:42:51.647Z,3.60
2022-12-23T10:45:32.075Z,4.30
2022-12-23T10:48:26.954Z,4.10
2022-12-23T10:51:24.794Z,4.20
2022-12-23T10:53:59.253Z,3.60
2022-12-23T10:56:31.715Z,4.30
2022-12-23T10:59:01.440Z,3.80
2022-12-23T11:01:32.687Z,4.10
2022-12-23T11:04:13.749Z,4.10
2022-12-23T11:07:18.100Z,3.80
2022-12-23T11:09:50.400Z,4.10
2022-12-23T11:12:27.367Z,3.70
2022-12-23T11:15:00.178Z,3.70
2022-12-23T11:17:35.806Z,3.90
2022-12-23T11:20:21.727Z,3.70
2022-12-23T11:23:04.787Z,3.80
2022-12-23T11:25:44.199Z,3.70
2022-12-23T11:28:18.919Z,3.80
2022-12-23T11:31:08.906Z,3.50
2022-12-23T11:33:49.653Z,3.60
2022-12-23T11:36:25.540Z,4.10
2022-12-23T11:39:23.380Z,3.50
2022-12-23T11:42:05.081Z,3.80
2022-12-23T11:44:51.940Z,3.90
2022-12-23T11:47:41.528Z,3.70
2022-12-23T11:50:41.383Z,3.80
2022-12-23T11:53:22.373Z,3.50
2022-12-23T11:56:10.961Z,3.50
2022-12-23T11:58:49.710Z,3.60
2022-12-23T12:01:25.315Z,3.60
2022-12-23T12:04:02.427Z,3.70
2022-12-23T12:06:35.421Z,3.50
2022-12-23T12:09:07.608Z,3.50
2022-12-23T12:11:47.875Z,3.80
2022-12-23T12:14:44.421Z,3.50
2022-12-23T12:17:36.613Z,3.60
2022-12-23T12:20:35.192Z,3.50
2022-12-23T12:23:14.128Z,3.50
2022-12-23T12:26:08.023Z,3.80
2022-12-23T12:28:46.421Z,3.70
2022-12-23T12:31:43.872Z,3.70
2022-12-23T12:34:39.586Z,3.60
2022-12-23T12:37:35.759Z,3.80
2022-12-23T12:40:46.420Z,3.80
2022-12-23T12:43:30.086Z,3.60
2022-12-23T12:46:17.961Z,3.80
2022-12-23T12:49:10.045Z,3.90
2022-12-23T12:51:55.417Z,4.00
2022-12-23T12:54:48.299Z,4.10
2022-12-23T12:57:22.190Z,3.70
2022-12-23T13:00:06.108Z,3.70
2022-12-23T13:03:19.144Z,3.90
2022-12-23T13:06:47.465Z,3.80
2022-12-23T13:10:00.772Z,3.70
2022-12-23T13:12:46.651Z,3.50
2022-12-23T13:15:47.999Z,3.60
2022-12-23T13:18:53.170Z,3.60
2022-12-23T13:21:49.499Z,3.90
2022-12-23T13:24:39.667Z,3.90
2022-12-23T13:27:36.637Z,3.50
2022-12-23T13:30:20.296Z,3.60
2022-12-23T13:33:10.346Z,3.50
2022-12-23T13:35:47.335Z,3.30
2022-12-23T13:38:47.449Z,3.50
2022-12-23T13:41:41.442Z,3.50
2022-12-23T13:44:16.268Z,3.40
2022-12-23T13:47:08.009Z,3.70
2022-12-23T13:49:59.713Z,3.10
2022-12-23T13:53:01.992Z,3.30
2022-12-23T13:56:05.281Z,3.30
2022-12-23T13:58:35.824Z,4.20
2022-12-23T14:01:12.039Z,4.30
2022-12-23T14:03:43.231Z,4.40
2022-12-23T14:06:24.115Z,4.50
2022-12-23T14:08:56.114Z,4.80
2022-12-23T14:11:30.015Z,4.90
2022-12-23T14:14:06.656Z,4.60
2022-12-23T14:16:49.252Z,4.80
2022-12-23T14:19:45.913Z,4.80
2022-12-23T14:22:40.905Z,4.80
2022-12-23T14:25:50.551Z,4.30
2022-12-23T14:28:47.095Z,4.40
2022-12-23T14:31:47.985Z,4.80
2022-12-23T14:34:20.412Z,4.10
2022-12-23T14:37:27.423Z,4.90
2022-12-23T14:39:55.971Z,4.70
2022-12-23T14:42:43.631Z,4.60
2022-12-23T14:45:42.447Z,4.20
2022-12-23T14:48:33.826Z,4.20
2022-12-23T14:51:11.264Z,4.10
2022-12-23T14:53:58.742Z,4.20
2022-12-23T14:56:43.602Z,4.20
2022-12-23T14:59:51.438Z,3.90
2022-12-23T15:02:31.185Z,4.30
2022-12-23T15:05:00.775Z,4.20
2022-12-23T15:07:42.998Z,4.20
2022-12-23T15:10:24.189Z,3.90
2022-12-23T15:12:58.068Z,4.40
2022-12-23T15:15:30.195Z,3.60
2022-12-23T15:18:12.941Z,4.30
2022-12-23T15:20:41.928Z,3.80
2022-12-23T15:23:16.953Z,4.00
2022-12-23T15:26:06.060Z,4.00
2022-12-23T15:28:41.251Z,3.80
2022-12-23T15:31:32.631Z,3.80
2022-12-23T15:34:17.035Z,4.00
2022-12-23T15:36:48.197Z,3.90
2022-12-23T15:39:44.144Z,3.90
2022-12-23T15:42:26.505Z,3.80
2022-12-23T15:44:55.086Z,3.90
2022-12-23T15:47:36.472Z,3.30
2022-12-23T15:50:15.777Z,4.10
2022-12-23T15:52:48.979Z,4.00
2022-12-23T15:55:33.683Z,4.10
2022-12-23T15:58:04.382Z,3.60
2022-12-23T16:00:54.087Z,4.10
2022-12-23T16:03:36.160Z,3.90
2022-12-23T16:06:20.304Z,4.00
2022-12-23T16:09:19.275Z,3.80
2022-12-23T16:12:04.950Z,3.70
2022-12-23T16:14:40.668Z,3.80
2022-12-23T16:19:56.152Z,3.70
2022-12-23T16:22:35.383Z,4.00
2022-12-23T16:25:33.660Z,4.10
2022-12-23T16:28:10.360Z,4.10
2022-12-23T16:30:43.201Z,4.10
2022-12-23T16:33:45.050Z,3.90
2022-12-23T16:36:37.254Z,4.40
2022-12-23T16:39:21.983Z,4.40
2022-12-23T16:44:21.182Z,4.10
2022-12-23T16:46:52.987Z,4.60
2022-12-23T16:49:32.923Z,4.00
2022-12-23T16:52:08.835Z,4.60
2022-12-23T16:54:43.095Z,4.20
2022-12-23T16:57:14.496Z,4.10
2022-12-23T16:59:44.056Z,4.30
2022-12-23T17:02:24.118Z,4.70
2022-12-23T17:04:56.987Z,4.50
2022-12-23T17:07:28.233Z,4.50
2022-12-23T17:09:57.089Z,4.80
2022-12-23T17:12:26.325Z,4.30
2022-12-23T17:14:55.166Z,5.30
2022-12-23T17:17:26.103Z,4.50
2022-12-23T17:19:56.486Z,4.80
2022-12-23T17:22:25.899Z,4.60
2022-12-23T17:24:54.051Z,4.60
2022-12-23T17:27:22.541Z,4.40
2022-12-23T17:29:51.214Z,4.20
2022-12-23T17:32:20.004Z,4.40
2022-12-23T17:34:48.895Z,4.70
2022-12-23T17:37:25.292Z,4.40
2022-12-23T17:39:53.812Z,4.40
2022-12-23T17:42:25.878Z,4.30
2022-12-23T17:44:54.423Z,4.30
2022-12-23T17:47:23.083Z,4.30
2022-12-23T17:49:52.297Z,4.50
2022-12-23T17:52:24.101Z,4.70
2022-12-23T17:54:52.881Z,4.80
2022-12-23T17:57:25.187Z,4.30
2022-12-23T17:59:54.826Z,4.60
2022-12-23T18:02:33.214Z,4.40
2022-12-23T18:05:11.127Z,4.80
2022-12-23T18:07:39.297Z,4.20
2022-12-23T18:10:12.797Z,4.70
2022-12-23T18:12:43.855Z,4.30
2022-12-23T18:15:24.404Z,4.20
2022-12-23T18:17:53.914Z,4.40
2022-12-23T18:20:26.518Z,4.40
2022-12-23T18:22:55.639Z,4.60
2022-12-23T18:25:27.361Z,4.40
2022-12-23T18:27:55.420Z,4.50
2022-12-23T18:30:23.694Z,4.20
2022-12-23T18:32:51.863Z,4.00
2022-12-23T18:35:34.910Z,4.10
2022-12-23T18:38:03.071Z,4.00
2022-12-23T18:40:33.431Z,4.10
2022-12-23T18:43:02.365Z,4.20
2022-12-23T18:45:41.971Z,4.40
2022-12-23T18:48:11.011Z,4.20
2022-12-23T18:50:42.622Z,4.10
2022-12-23T18:53:24.631Z,4.70
2022-12-23T18:55:55.394Z,4.40
2022-12-23T18:58:25.435Z,4.30
2022-12-23T19:00:57.112Z,4.40
2022-12-23T19:03:29.500Z,4.50
2022-12-23T19:06:06.899Z,4.20
2022-12-23T19:08:37.798Z,4.50
2022-12-23T19:11:13.224Z,4.30
2022-12-23T19:13:41.506Z,4.20
2022-12-23T19:16:16.042Z,4.40
2022-12-23T19:21:14.826Z,3.70
2022-12-23T19:23:44.233Z,4.40
2022-12-23T19:26:14.750Z,4.30
2022-12-23T19:28:43.047Z,4.40
2022-12-23T19:31:14.339Z,4.60
2022-12-23T19:33:46.727Z,4.00
2022-12-23T19:36:23.011Z,4.20
2022-12-23T19:38:52.328Z,4.40
2022-12-23T19:41:20.624Z,4.40
2022-12-23T19:43:48.789Z,4.40
2022-12-23T19:46:18.109Z,4.80
2022-12-23T19:48:55.200Z,4.50
2022-12-23T19:51:23.482Z,4.50
2022-12-23T19:53:53.070Z,4.70
2022-12-23T19:56:22.043Z,4.80
2022-12-23T19:58:51.233Z,5.20
2022-12-23T20:01:24.103Z,4.80
2022-12-23T20:03:55.324Z,4.90
2022-12-23T20:06:28.326Z,4.80
2022-12-23T20:09:00.932Z,4.50
2022-12-23T20:11:33.897Z,5.00
2022-12-23T20:14:04.776Z,5.00
2022-12-23T20:16:34.625Z,4.90
2022-12-23T20:19:03.469Z,4.80
2022-12-23T20:21:32.050Z,5.00
2022-12-23T20:24:00.899Z,4.80
2022-12-23T20:26:29.331Z,4.90
2022-12-23T20:28:58.924Z,5.10
2022-12-23T20:31:30.547Z,5.20
2022-12-23T20:34:01.311Z,4.80
2022-12-23T20:36:34.732Z,5.10
2022-12-23T20:39:05.239Z,4.50
2022-12-23T20:41:34.380Z,5.30
2022-12-23T20:44:33.120Z,4.90
2022-12-23T20:46:53.206Z,5.00
2022-12-23T20:49:22.513Z,5.20
2022-12-23T20:51:51.613Z,4.90
2022-12-23T20:54:19.982Z,4.90
2022-12-23T20:56:48.170Z,5.30
2022-12-23T20:59:18.790Z,5.30
2022-12-23T21:01:47.296Z,4.90
2022-12-23T21:04:17.520Z,5.50
2022-12-23T21:06:45.946Z,5.10
2022-12-23T21:09:16.852Z,5.30
2022-12-23T21:11:47.908Z,5.40
2022-12-23T21:14:16.470Z,5.50
2022-12-23T21:16:45.632Z,5.30
2022-12-23T21:19:19.075Z,5.30
2022-12-23T21:21:50.200Z,6.90
2022-12-23T21:24:21.214Z,9.30
2022-12-23T21:26:56.537Z,11.20
2022-12-23T21:29:26.654Z,13.40
2022-12-23T21:31:55.418Z,13.00
2022-12-23T21:34:24.059Z,13.80
2022-12-23T21:36:52.186Z,14.60
2022-12-23T21:39:20.812Z,14.30
2022-12-23T21:41:51.671Z,14.30
2022-12-23T21:44:20.138Z,13.80
2022-12-23T21:46:51.350Z,12.90
2022-12-23T21:49:21.589Z,13.30
2022-12-23T21:51:50.731Z,12.30
2022-12-23T21:54:19.096Z,12.70
2022-12-23T21:56:47.473Z,13.10
2022-12-23T21:59:16.047Z,12.20
2022-12-23T22:01:45.044Z,12.10
2022-12-23T22:04:13.833Z,11.90
2022-12-23T22:06:45.875Z,11.10
2022-12-23T22:09:18.567Z,11.90
2022-12-23T22:11:48.556Z,10.60
2022-12-23T22:14:19.845Z,10.90
2022-12-23T22:16:48.317Z,12.70
2022-12-23T22:19:16.685Z,13.50
2022-12-23T22:21:45.168Z,12.90
2022-12-23T22:24:13.555Z,12.50
2022-12-23T22:26:42.566Z,12.50
2022-12-23T22:29:12.254Z,12.70
2022-12-23T22:31:50.858Z,11.90
2022-12-23T22:34:22.751Z,11.80
2022-12-23T22:36:51.376Z,12.80
2022-12-23T22:39:21.987Z,11.30
2022-12-23T22:41:52.316Z,11.50
2022-12-23T22:44:22.416Z,10.80
2022-12-23T22:46:51.183Z,11.20
2022-12-23T22:49:19.774Z,10.50
2022-12-23T22:51:48.267Z,11.10
2022-12-23T22:54:16.732Z,12.20
2022-12-23T22:56:48.287Z,11.50
2022-12-23T22:59:23.777Z,11.10
2022-12-23T23:01:53.968Z,11.00
2022-12-23T23:04:22.301Z,10.80
2022-12-23T23:06:51.037Z,10.70
2022-12-23T23:09:22.366Z,11.10
2022-12-23T23:11:51.886Z,10.20
2022-12-23T23:14:21.573Z,9.90
2022-12-23T23:16:50.242Z,9.80
2022-12-23T23:19:20.728Z,10.00
2022-12-23T23:21:49.099Z,10.20
2022-12-23T23:24:17.860Z,9.90
2022-12-23T23:26:46.211Z,9.80
2022-12-23T23:29:15.334Z,9.70
2022-12-23T23:31:44.388Z,9.40
2022-12-23T23:34:14.199Z,8.80
2022-12-23T23:36:43.475Z,9.50
2022-12-23T23:39:13.065Z,9.30
2022-12-23T23:41:42.995Z,8.70
2022-12-23T23:44:12.423Z,8.30
2022-12-23T23:46:40.664Z,8.90
2022-12-23T23:49:09.532Z,8.60
2022-12-23T23:51:39.445Z,8.40
2022-12-23T23:54:08.440Z,8.30
2022-12-23T23:56:39.410Z,7.80
2022-12-23T23:59:09.367Z,8.60
